sensor_id;sensor_type;location;lat;lon;timestamp;temperature;humidity
35960;DHT22;22043;50.970;7.192;2022-07-29T00:02:08;18.90;99.80
35960;DHT22;22043;50.970;7.192;2022-07-29T00:04:35;18.90;99.90
35960;DHT22;22043;50.970;7.192;2022-07-29T00:07:00;18.90;99.40
35960;DHT22;22043;50.970;7.192;2022-07-29T00:09:26;18.90;99.60
35960;DHT22;22043;50.970;7.192;2022-07-29T00:11:53;18.90;99.90
35960;DHT22;22043;50.970;7.192;2022-07-29T00:14:20;18.90;99.40
35960;DHT22;22043;50.970;7.192;2022-07-29T00:16:46;18.90;98.90
35960;DHT22;22043;50.970;7.192;2022-07-29T00:19:11;18.90;98.80
35960;DHT22;22043;50.970;7.192;2022-07-29T00:21:37;18.90;99.60
35960;DHT22;22043;50.970;7.192;2022-07-29T00:24:03;18.90;99.20
35960;DHT22;22043;50.970;7.192;2022-07-29T00:26:29;19.00;99.70
35960;DHT22;22043;50.970;7.192;2022-07-29T00:28:57;18.90;99.70
35960;DHT22;22043;50.970;7.192;2022-07-29T00:31:23;18.90;98.80
35960;DHT22;22043;50.970;7.192;2022-07-29T00:33:49;18.90;99.20
35960;DHT22;22043;50.970;7.192;2022-07-29T00:36:14;18.90;98.80
35960;DHT22;22043;50.970;7.192;2022-07-29T00:38:40;19.00;98.90
35960;DHT22;22043;50.970;7.192;2022-07-29T00:41:09;18.90;98.90
35960;DHT22;22043;50.970;7.192;2022-07-29T00:43:35;19.00;99.00
35960;DHT22;22043;50.970;7.192;2022-07-29T00:46:01;19.00;99.20
35960;DHT22;22043;50.970;7.192;2022-07-29T00:48:27;19.00;99.60
35960;DHT22;22043;50.970;7.192;2022-07-29T00:50:52;19.00;98.90
35960;DHT22;22043;50.970;7.192;2022-07-29T00:53:19;19.00;99.00
35960;DHT22;22043;50.970;7.192;2022-07-29T00:55:45;19.00;98.30
35960;DHT22;22043;50.970;7.192;2022-07-29T00:58:12;19.00;98.50
35960;DHT22;22043;50.970;7.192;2022-07-29T01:00:38;18.90;98.70
35960;DHT22;22043;50.970;7.192;2022-07-29T01:03:06;19.00;98.90
35960;DHT22;22043;50.970;7.192;2022-07-29T01:05:32;19.00;98.30
35960;DHT22;22043;50.970;7.192;2022-07-29T01:07:59;18.90;98.00
35960;DHT22;22043;50.970;7.192;2022-07-29T01:10:25;19.00;97.00
35960;DHT22;22043;50.970;7.192;2022-07-29T01:12:52;19.00;97.20
35960;DHT22;22043;50.970;7.192;2022-07-29T01:15:18;19.00;96.80
35960;DHT22;22043;50.970;7.192;2022-07-29T01:18:04;19.00;96.90
35960;DHT22;22043;50.970;7.192;2022-07-29T01:24:42;19.00;96.30
35960;DHT22;22043;50.970;7.192;2022-07-29T01:26:52;19.00;96.70
35960;DHT22;22043;50.970;7.192;2022-07-29T01:29:30;19.00;97.00
35960;DHT22;22043;50.970;7.192;2022-07-29T01:32:12;19.00;96.60
35960;DHT22;22043;50.970;7.192;2022-07-29T01:37:19;19.00;96.60
35960;DHT22;22043;50.970;7.192;2022-07-29T01:39:47;19.00;95.90
35960;DHT22;22043;50.970;7.192;2022-07-29T01:42:27;19.00;96.60
35960;DHT22;22043;50.970;7.192;2022-07-29T01:45:09;19.00;96.10
35960;DHT22;22043;50.970;7.192;2022-07-29T01:53:25;18.90;96.00
35960;DHT22;22043;50.970;7.192;2022-07-29T01:55:53;19.00;96.90
35960;DHT22;22043;50.970;7.192;2022-07-29T01:58:19;18.90;95.60
35960;DHT22;22043;50.970;7.192;2022-07-29T02:00:47;18.90;96.20
35960;DHT22;22043;50.970;7.192;2022-07-29T02:03:15;18.90;96.60
35960;DHT22;22043;50.970;7.192;2022-07-29T02:05:45;18.90;95.70
35960;DHT22;22043;50.970;7.192;2022-07-29T02:08:13;18.90;95.60
35960;DHT22;22043;50.970;7.192;2022-07-29T02:10:42;18.90;95.80
35960;DHT22;22043;50.970;7.192;2022-07-29T02:13:09;18.90;96.40
35960;DHT22;22043;50.970;7.192;2022-07-29T02:15:36;18.90;95.70
35960;DHT22;22043;50.970;7.192;2022-07-29T02:18:13;18.90;95.60
35960;DHT22;22043;50.970;7.192;2022-07-29T02:20:40;18.90;95.30
35960;DHT22;22043;50.970;7.192;2022-07-29T02:23:07;19.00;96.10
35960;DHT22;22043;50.970;7.192;2022-07-29T02:25:36;18.90;96.70
35960;DHT22;22043;50.970;7.192;2022-07-29T02:28:02;18.90;96.50
35960;DHT22;22043;50.970;7.192;2022-07-29T02:30:30;18.90;95.70
35960;DHT22;22043;50.970;7.192;2022-07-29T02:32:57;18.90;95.70
35960;DHT22;22043;50.970;7.192;2022-07-29T02:35:27;18.90;96.00
35960;DHT22;22043;50.970;7.192;2022-07-29T02:37:53;18.90;96.40
35960;DHT22;22043;50.970;7.192;2022-07-29T02:40:39;18.90;96.90
35960;DHT22;22043;50.970;7.192;2022-07-29T02:43:07;18.80;96.00
35960;DHT22;22043;50.970;7.192;2022-07-29T02:45:34;18.80;95.30
35960;DHT22;22043;50.970;7.192;2022-07-29T02:48:01;18.80;95.50
35960;DHT22;22043;50.970;7.192;2022-07-29T02:50:34;18.80;95.50
35960;DHT22;22043;50.970;7.192;2022-07-29T02:53:33;18.90;95.50
35960;DHT22;22043;50.970;7.192;2022-07-29T02:55:57;18.80;95.60
35960;DHT22;22043;50.970;7.192;2022-07-29T02:58:25;18.70;96.00
35960;DHT22;22043;50.970;7.192;2022-07-29T03:00:55;18.80;96.30
35960;DHT22;22043;50.970;7.192;2022-07-29T03:03:23;18.70;96.80
35960;DHT22;22043;50.970;7.192;2022-07-29T03:05:54;18.70;96.70
35960;DHT22;22043;50.970;7.192;2022-07-29T03:08:21;18.60;95.40
35960;DHT22;22043;50.970;7.192;2022-07-29T03:10:48;18.60;95.60
35960;DHT22;22043;50.970;7.192;2022-07-29T03:13:14;18.60;95.30
35960;DHT22;22043;50.970;7.192;2022-07-29T03:15:43;18.60;95.80
35960;DHT22;22043;50.970;7.192;2022-07-29T03:18:09;18.60;95.70
35960;DHT22;22043;50.970;7.192;2022-07-29T03:20:37;18.60;95.30
35960;DHT22;22043;50.970;7.192;2022-07-29T03:23:03;18.60;95.10
35960;DHT22;22043;50.970;7.192;2022-07-29T03:25:28;18.60;95.90
35960;DHT22;22043;50.970;7.192;2022-07-29T03:27:54;18.60;96.50
35960;DHT22;22043;50.970;7.192;2022-07-29T03:30:19;18.60;96.90
35960;DHT22;22043;50.970;7.192;2022-07-29T03:32:45;18.60;96.40
35960;DHT22;22043;50.970;7.192;2022-07-29T03:35:11;18.70;97.60
35960;DHT22;22043;50.970;7.192;2022-07-29T03:37:36;18.60;96.60
35960;DHT22;22043;50.970;7.192;2022-07-29T03:40:05;18.60;96.00
35960;DHT22;22043;50.970;7.192;2022-07-29T03:42:34;18.60;97.70
35960;DHT22;22043;50.970;7.192;2022-07-29T03:45:05;18.60;98.00
35960;DHT22;22043;50.970;7.192;2022-07-29T03:47:32;18.60;97.90
35960;DHT22;22043;50.970;7.192;2022-07-29T03:50:05;18.60;98.00
35960;DHT22;22043;50.970;7.192;2022-07-29T03:52:32;18.60;98.60
35960;DHT22;22043;50.970;7.192;2022-07-29T03:54:58;18.60;98.70
35960;DHT22;22043;50.970;7.192;2022-07-29T03:57:25;18.50;98.80
35960;DHT22;22043;50.970;7.192;2022-07-29T03:59:53;18.50;99.90
35960;DHT22;22043;50.970;7.192;2022-07-29T04:02:19;18.50;99.90
35960;DHT22;22043;50.970;7.192;2022-07-29T04:04:45;18.40;99.20
35960;DHT22;22043;50.970;7.192;2022-07-29T04:07:14;18.40;99.20
35960;DHT22;22043;50.970;7.192;2022-07-29T04:09:41;18.40;99.70
35960;DHT22;22043;50.970;7.192;2022-07-29T04:12:06;18.40;99.80
35960;DHT22;22043;50.970;7.192;2022-07-29T04:14:32;18.40;99.10
35960;DHT22;22043;50.970;7.192;2022-07-29T04:16:59;18.40;99.10
35960;DHT22;22043;50.970;7.192;2022-07-29T04:19:25;18.30;98.60
35960;DHT22;22043;50.970;7.192;2022-07-29T04:21:50;18.30;98.70
35960;DHT22;22043;50.970;7.192;2022-07-29T04:24:16;18.30;98.90
35960;DHT22;22043;50.970;7.192;2022-07-29T04:26:42;18.30;99.30
35960;DHT22;22043;50.970;7.192;2022-07-29T04:29:08;18.30;98.80
35960;DHT22;22043;50.970;7.192;2022-07-29T04:31:34;18.30;99.50
35960;DHT22;22043;50.970;7.192;2022-07-29T04:33:59;18.30;99.10
35960;DHT22;22043;50.970;7.192;2022-07-29T04:36:25;18.30;99.60
35960;DHT22;22043;50.970;7.192;2022-07-29T04:41:17;18.40;99.90
35960;DHT22;22043;50.970;7.192;2022-07-29T04:43:42;18.30;99.90
35960;DHT22;22043;50.970;7.192;2022-07-29T04:46:08;18.30;99.90
35960;DHT22;22043;50.970;7.192;2022-07-29T04:48:34;18.20;99.90
35960;DHT22;22043;50.970;7.192;2022-07-29T04:50:59;18.30;99.90
35960;DHT22;22043;50.970;7.192;2022-07-29T04:53:25;18.30;99.90
35960;DHT22;22043;50.970;7.192;2022-07-29T04:55:51;18.20;99.90
35960;DHT22;22043;50.970;7.192;2022-07-29T04:58:17;18.20;99.90
35960;DHT22;22043;50.970;7.192;2022-07-29T05:00:42;18.20;99.90
35960;DHT22;22043;50.970;7.192;2022-07-29T05:03:08;18.20;99.90
35960;DHT22;22043;50.970;7.192;2022-07-29T05:05:34;18.20;99.90
35960;DHT22;22043;50.970;7.192;2022-07-29T05:07:59;18.20;99.90
35960;DHT22;22043;50.970;7.192;2022-07-29T05:10:25;18.20;99.90
35960;DHT22;22043;50.970;7.192;2022-07-29T05:12:51;18.20;99.90
35960;DHT22;22043;50.970;7.192;2022-07-29T05:15:16;18.20;99.90
35960;DHT22;22043;50.970;7.192;2022-07-29T05:17:43;18.20;99.90
35960;DHT22;22043;50.970;7.192;2022-07-29T05:20:09;18.20;99.90
35960;DHT22;22043;50.970;7.192;2022-07-29T05:22:35;18.20;99.90
35960;DHT22;22043;50.970;7.192;2022-07-29T05:25:01;18.20;99.90
35960;DHT22;22043;50.970;7.192;2022-07-29T05:27:26;18.30;99.90
35960;DHT22;22043;50.970;7.192;2022-07-29T05:29:52;18.30;99.90
35960;DHT22;22043;50.970;7.192;2022-07-29T05:32:18;18.40;99.90
35960;DHT22;22043;50.970;7.192;2022-07-29T05:34:43;18.40;99.90
35960;DHT22;22043;50.970;7.192;2022-07-29T05:37:09;18.40;99.90
35960;DHT22;22043;50.970;7.192;2022-07-29T05:39:35;18.40;99.90
35960;DHT22;22043;50.970;7.192;2022-07-29T05:42:00;18.40;99.90
35960;DHT22;22043;50.970;7.192;2022-07-29T05:44:26;18.40;99.90
35960;DHT22;22043;50.970;7.192;2022-07-29T05:46:52;18.40;99.90
35960;DHT22;22043;50.970;7.192;2022-07-29T05:49:18;18.50;99.90
35960;DHT22;22043;50.970;7.192;2022-07-29T05:51:43;18.50;99.90
35960;DHT22;22043;50.970;7.192;2022-07-29T05:54:09;18.50;99.90
35960;DHT22;22043;50.970;7.192;2022-07-29T05:56:36;18.60;99.90
35960;DHT22;22043;50.970;7.192;2022-07-29T05:59:02;18.50;99.90
35960;DHT22;22043;50.970;7.192;2022-07-29T06:01:28;18.60;99.90
35960;DHT22;22043;50.970;7.192;2022-07-29T06:03:54;18.60;99.90
35960;DHT22;22043;50.970;7.192;2022-07-29T06:06:20;18.70;99.90
35960;DHT22;22043;50.970;7.192;2022-07-29T06:08:46;18.70;99.90
35960;DHT22;22043;50.970;7.192;2022-07-29T06:11:11;18.70;99.90
35960;DHT22;22043;50.970;7.192;2022-07-29T06:13:37;18.70;99.90
35960;DHT22;22043;50.970;7.192;2022-07-29T06:16:03;18.70;99.90
35960;DHT22;22043;50.970;7.192;2022-07-29T06:18:29;18.80;99.90
35960;DHT22;22043;50.970;7.192;2022-07-29T06:20:55;18.80;99.90
35960;DHT22;22043;50.970;7.192;2022-07-29T06:23:21;18.80;99.90
35960;DHT22;22043;50.970;7.192;2022-07-29T06:25:47;18.80;99.90
35960;DHT22;22043;50.970;7.192;2022-07-29T06:28:13;18.90;99.90
35960;DHT22;22043;50.970;7.192;2022-07-29T06:30:39;18.90;99.90
35960;DHT22;22043;50.970;7.192;2022-07-29T06:33:05;19.00;99.90
35960;DHT22;22043;50.970;7.192;2022-07-29T06:35:33;19.00;99.90
35960;DHT22;22043;50.970;7.192;2022-07-29T06:38:01;19.10;99.90
35960;DHT22;22043;50.970;7.192;2022-07-29T06:44:13;19.20;99.90
35960;DHT22;22043;50.970;7.192;2022-07-29T06:46:39;19.20;99.90
35960;DHT22;22043;50.970;7.192;2022-07-29T06:49:05;19.30;99.90
35960;DHT22;22043;50.970;7.192;2022-07-29T06:51:30;19.40;99.90
35960;DHT22;22043;50.970;7.192;2022-07-29T06:53:56;19.40;99.90
35960;DHT22;22043;50.970;7.192;2022-07-29T06:56:26;19.50;99.90
35960;DHT22;22043;50.970;7.192;2022-07-29T06:58:52;19.60;99.90
35960;DHT22;22043;50.970;7.192;2022-07-29T07:01:18;19.60;99.90
35960;DHT22;22043;50.970;7.192;2022-07-29T07:03:43;19.70;99.90
35960;DHT22;22043;50.970;7.192;2022-07-29T07:06:09;19.70;99.90
35960;DHT22;22043;50.970;7.192;2022-07-29T07:08:35;19.70;99.90
35960;DHT22;22043;50.970;7.192;2022-07-29T07:11:00;19.70;99.90
35960;DHT22;22043;50.970;7.192;2022-07-29T07:13:26;19.80;99.90
35960;DHT22;22043;50.970;7.192;2022-07-29T07:15:53;19.90;99.90
35960;DHT22;22043;50.970;7.192;2022-07-29T07:18:19;20.00;99.90
35960;DHT22;22043;50.970;7.192;2022-07-29T07:20:44;20.00;99.90
35960;DHT22;22043;50.970;7.192;2022-07-29T07:23:11;20.10;99.90
35960;DHT22;22043;50.970;7.192;2022-07-29T07:25:36;20.20;99.90
35960;DHT22;22043;50.970;7.192;2022-07-29T07:28:03;20.30;99.90
35960;DHT22;22043;50.970;7.192;2022-07-29T07:30:28;20.30;99.90
35960;DHT22;22043;50.970;7.192;2022-07-29T07:32:54;20.30;99.90
35960;DHT22;22043;50.970;7.192;2022-07-29T07:35:21;20.40;99.90
35960;DHT22;22043;50.970;7.192;2022-07-29T07:37:46;20.40;99.90
35960;DHT22;22043;50.970;7.192;2022-07-29T07:40:13;20.40;99.90
35960;DHT22;22043;50.970;7.192;2022-07-29T07:42:40;20.40;99.90
35960;DHT22;22043;50.970;7.192;2022-07-29T07:45:07;20.40;99.90
35960;DHT22;22043;50.970;7.192;2022-07-29T07:47:35;20.40;99.90
35960;DHT22;22043;50.970;7.192;2022-07-29T07:50:01;20.40;99.90
35960;DHT22;22043;50.970;7.192;2022-07-29T07:52:27;20.30;99.90
35960;DHT22;22043;50.970;7.192;2022-07-29T07:54:53;20.30;99.90
35960;DHT22;22043;50.970;7.192;2022-07-29T07:57:18;20.30;99.90
35960;DHT22;22043;50.970;7.192;2022-07-29T07:59:44;20.40;99.90
35960;DHT22;22043;50.970;7.192;2022-07-29T08:02:10;20.40;99.90
35960;DHT22;22043;50.970;7.192;2022-07-29T08:04:36;20.50;99.90
35960;DHT22;22043;50.970;7.192;2022-07-29T08:07:02;20.60;99.90
35960;DHT22;22043;50.970;7.192;2022-07-29T08:09:29;20.60;99.90
35960;DHT22;22043;50.970;7.192;2022-07-29T08:11:55;20.60;99.90
35960;DHT22;22043;50.970;7.192;2022-07-29T08:14:21;20.70;99.90
35960;DHT22;22043;50.970;7.192;2022-07-29T08:16:47;20.70;99.90
35960;DHT22;22043;50.970;7.192;2022-07-29T08:19:13;20.70;99.90
35960;DHT22;22043;50.970;7.192;2022-07-29T08:21:39;20.80;99.90
35960;DHT22;22043;50.970;7.192;2022-07-29T08:24:05;20.80;99.90
35960;DHT22;22043;50.970;7.192;2022-07-29T08:26:49;20.80;99.90
35960;DHT22;22043;50.970;7.192;2022-07-29T08:29:15;20.80;99.90
35960;DHT22;22043;50.970;7.192;2022-07-29T08:31:41;20.80;99.90
35960;DHT22;22043;50.970;7.192;2022-07-29T08:34:07;20.80;99.90
35960;DHT22;22043;50.970;7.192;2022-07-29T08:36:33;20.80;99.90
35960;DHT22;22043;50.970;7.192;2022-07-29T08:38:59;20.80;99.90
35960;DHT22;22043;50.970;7.192;2022-07-29T08:41:25;20.90;99.90
35960;DHT22;22043;50.970;7.192;2022-07-29T08:43:52;20.80;99.20
35960;DHT22;22043;50.970;7.192;2022-07-29T08:46:19;20.80;99.10
35960;DHT22;22043;50.970;7.192;2022-07-29T08:48:45;20.90;99.60
35960;DHT22;22043;50.970;7.192;2022-07-29T08:51:16;20.90;99.90
35960;DHT22;22043;50.970;7.192;2022-07-29T08:53:44;20.90;99.90
35960;DHT22;22043;50.970;7.192;2022-07-29T08:56:15;20.90;99.90
35960;DHT22;22043;50.970;7.192;2022-07-29T08:58:45;20.90;98.90
35960;DHT22;22043;50.970;7.192;2022-07-29T09:01:13;20.90;99.40
35960;DHT22;22043;50.970;7.192;2022-07-29T09:03:41;20.90;99.90
35960;DHT22;22043;50.970;7.192;2022-07-29T09:06:08;20.90;99.90
35960;DHT22;22043;50.970;7.192;2022-07-29T09:08:34;20.90;98.50
35960;DHT22;22043;50.970;7.192;2022-07-29T09:11:03;21.00;98.80
35960;DHT22;22043;50.970;7.192;2022-07-29T09:13:29;21.10;98.30
35960;DHT22;22043;50.970;7.192;2022-07-29T09:15:54;21.10;98.70
35960;DHT22;22043;50.970;7.192;2022-07-29T09:18:41;21.10;99.20
35960;DHT22;22043;50.970;7.192;2022-07-29T09:21:12;21.20;99.10
35960;DHT22;22043;50.970;7.192;2022-07-29T09:26:31;21.20;99.50
35960;DHT22;22043;50.970;7.192;2022-07-29T09:28:58;21.20;99.90
35960;DHT22;22043;50.970;7.192;2022-07-29T09:31:33;21.30;99.90
35960;DHT22;22043;50.970;7.192;2022-07-29T09:33:59;21.30;99.90
35960;DHT22;22043;50.970;7.192;2022-07-29T09:36:26;21.20;99.90
35960;DHT22;22043;50.970;7.192;2022-07-29T09:38:59;21.20;99.90
35960;DHT22;22043;50.970;7.192;2022-07-29T09:41:29;21.20;99.90
35960;DHT22;22043;50.970;7.192;2022-07-29T09:43:56;21.30;99.90
35960;DHT22;22043;50.970;7.192;2022-07-29T09:46:23;21.30;99.90
35960;DHT22;22043;50.970;7.192;2022-07-29T09:49:10;21.30;99.90
35960;DHT22;22043;50.970;7.192;2022-07-29T09:51:36;21.30;99.90
35960;DHT22;22043;50.970;7.192;2022-07-29T09:54:29;21.30;99.90
35960;DHT22;22043;50.970;7.192;2022-07-29T09:56:59;21.30;99.90
35960;DHT22;22043;50.970;7.192;2022-07-29T09:59:25;21.30;99.90
35960;DHT22;22043;50.970;7.192;2022-07-29T10:01:52;21.30;99.90
35960;DHT22;22043;50.970;7.192;2022-07-29T10:04:18;21.40;99.90
35960;DHT22;22043;50.970;7.192;2022-07-29T10:07:01;21.50;99.30
35960;DHT22;22043;50.970;7.192;2022-07-29T10:09:27;21.50;99.60
35960;DHT22;22043;50.970;7.192;2022-07-29T10:12:22;21.60;99.90
35960;DHT22;22043;50.970;7.192;2022-07-29T10:14:49;21.60;99.90
35960;DHT22;22043;50.970;7.192;2022-07-29T10:17:16;21.60;99.40
35960;DHT22;22043;50.970;7.192;2022-07-29T10:19:42;21.70;99.60
35960;DHT22;22043;50.970;7.192;2022-07-29T10:22:09;21.70;99.90
35960;DHT22;22043;50.970;7.192;2022-07-29T10:24:37;21.80;99.90
35960;DHT22;22043;50.970;7.192;2022-07-29T10:27:05;21.80;99.90
35960;DHT22;22043;50.970;7.192;2022-07-29T10:29:31;21.90;99.90
35960;DHT22;22043;50.970;7.192;2022-07-29T10:35:11;22.00;99.50
35960;DHT22;22043;50.970;7.192;2022-07-29T10:37:43;22.10;99.80
35960;DHT22;22043;50.970;7.192;2022-07-29T10:43:27;22.20;99.90
35960;DHT22;22043;50.970;7.192;2022-07-29T10:45:59;22.30;99.90
35960;DHT22;22043;50.970;7.192;2022-07-29T10:48:25;22.30;99.90
35960;DHT22;22043;50.970;7.192;2022-07-29T10:51:01;22.40;99.90
35960;DHT22;22043;50.970;7.192;2022-07-29T10:54:05;22.50;99.90
35960;DHT22;22043;50.970;7.192;2022-07-29T10:56:32;22.50;99.90
35960;DHT22;22043;50.970;7.192;2022-07-29T11:01:47;22.50;99.90
35960;DHT22;22043;50.970;7.192;2022-07-29T11:04:13;22.50;99.90
35960;DHT22;22043;50.970;7.192;2022-07-29T11:09:26;22.50;99.90
35960;DHT22;22043;50.970;7.192;2022-07-29T11:11:52;22.40;99.90
35960;DHT22;22043;50.970;7.192;2022-07-29T11:14:18;22.40;99.90
35960;DHT22;22043;50.970;7.192;2022-07-29T11:17:05;22.30;99.90
35960;DHT22;22043;50.970;7.192;2022-07-29T11:19:32;22.30;99.90
35960;DHT22;22043;50.970;7.192;2022-07-29T11:21:58;22.30;99.90
35960;DHT22;22043;50.970;7.192;2022-07-29T11:24:24;22.30;99.90
35960;DHT22;22043;50.970;7.192;2022-07-29T11:27:15;22.30;99.90
35960;DHT22;22043;50.970;7.192;2022-07-29T11:29:53;22.20;99.90
35960;DHT22;22043;50.970;7.192;2022-07-29T11:32:19;22.20;99.90
35960;DHT22;22043;50.970;7.192;2022-07-29T11:34:47;22.20;99.90
35960;DHT22;22043;50.970;7.192;2022-07-29T11:39:40;22.30;99.90
35960;DHT22;22043;50.970;7.192;2022-07-29T11:47:27;22.20;99.90
35960;DHT22;22043;50.970;7.192;2022-07-29T11:49:55;22.10;99.90
35960;DHT22;22043;50.970;7.192;2022-07-29T11:52:22;22.10;99.90
35960;DHT22;22043;50.970;7.192;2022-07-29T11:54:50;22.00;99.90
35960;DHT22;22043;50.970;7.192;2022-07-29T11:57:19;21.90;99.90
35960;DHT22;22043;50.970;7.192;2022-07-29T11:59:46;21.90;99.90
35960;DHT22;22043;50.970;7.192;2022-07-29T12:02:13;21.80;99.90
35960;DHT22;22043;50.970;7.192;2022-07-29T12:04:59;21.80;99.90
35960;DHT22;22043;50.970;7.192;2022-07-29T12:07:32;21.90;99.90
35960;DHT22;22043;50.970;7.192;2022-07-29T12:09:58;21.80;99.90
35960;DHT22;22043;50.970;7.192;2022-07-29T12:12:24;21.80;99.90
35960;DHT22;22043;50.970;7.192;2022-07-29T12:14:51;21.90;99.90
35960;DHT22;22043;50.970;7.192;2022-07-29T12:17:33;22.00;99.90
35960;DHT22;22043;50.970;7.192;2022-07-29T12:20:02;22.00;99.90
35960;DHT22;22043;50.970;7.192;2022-07-29T12:22:30;21.90;99.90
35960;DHT22;22043;50.970;7.192;2022-07-29T12:25:02;21.90;99.90
35960;DHT22;22043;50.970;7.192;2022-07-29T12:27:28;21.90;99.90
35960;DHT22;22043;50.970;7.192;2022-07-29T12:30:01;21.80;99.90
35960;DHT22;22043;50.970;7.192;2022-07-29T12:32:47;21.90;99.90
35960;DHT22;22043;50.970;7.192;2022-07-29T12:35:18;22.00;99.90
35960;DHT22;22043;50.970;7.192;2022-07-29T12:37:46;22.00;99.90
35960;DHT22;22043;50.970;7.192;2022-07-29T12:40:16;22.10;99.90
35960;DHT22;22043;50.970;7.192;2022-07-29T12:43:12;22.10;98.90
35960;DHT22;22043;50.970;7.192;2022-07-29T12:45:41;22.10;98.90
35960;DHT22;22043;50.970;7.192;2022-07-29T12:48:07;22.10;99.60
35960;DHT22;22043;50.970;7.192;2022-07-29T12:50:50;22.20;99.80
35960;DHT22;22043;50.970;7.192;2022-07-29T12:53:16;22.20;99.90
35960;DHT22;22043;50.970;7.192;2022-07-29T12:55:44;22.20;99.90
35960;DHT22;22043;50.970;7.192;2022-07-29T12:58:25;22.30;99.90
35960;DHT22;22043;50.970;7.192;2022-07-29T13:01:00;22.30;99.90
35960;DHT22;22043;50.970;7.192;2022-07-29T13:03:25;22.30;99.00
35960;DHT22;22043;50.970;7.192;2022-07-29T13:05:51;22.30;99.10
35960;DHT22;22043;50.970;7.192;2022-07-29T13:08:17;22.30;99.40
35960;DHT22;22043;50.970;7.192;2022-07-29T13:10:46;22.20;99.80
35960;DHT22;22043;50.970;7.192;2022-07-29T13:13:14;22.20;99.70
35960;DHT22;22043;50.970;7.192;2022-07-29T13:15:46;22.20;99.70
35960;DHT22;22043;50.970;7.192;2022-07-29T13:18:31;22.10;99.00
35960;DHT22;22043;50.970;7.192;2022-07-29T13:21:10;22.10;99.60
35960;DHT22;22043;50.970;7.192;2022-07-29T13:23:36;22.00;99.60
35960;DHT22;22043;50.970;7.192;2022-07-29T13:26:09;22.10;99.90
35960;DHT22;22043;50.970;7.192;2022-07-29T13:28:37;22.20;99.90
35960;DHT22;22043;50.970;7.192;2022-07-29T13:31:03;22.30;99.90
35960;DHT22;22043;50.970;7.192;2022-07-29T13:33:30;22.30;99.50
35960;DHT22;22043;50.970;7.192;2022-07-29T13:35:56;22.30;99.70
35960;DHT22;22043;50.970;7.192;2022-07-29T13:38:21;22.30;99.80
35960;DHT22;22043;50.970;7.192;2022-07-29T13:40:47;22.40;99.40
35960;DHT22;22043;50.970;7.192;2022-07-29T13:43:13;22.50;98.70
35960;DHT22;22043;50.970;7.192;2022-07-29T13:45:39;22.50;98.60
35960;DHT22;22043;50.970;7.192;2022-07-29T13:48:05;22.60;98.10
35960;DHT22;22043;50.970;7.192;2022-07-29T13:50:32;22.50;98.40
35960;DHT22;22043;50.970;7.192;2022-07-29T13:52:58;22.60;98.50
35960;DHT22;22043;50.970;7.192;2022-07-29T13:55:23;22.60;99.00
35960;DHT22;22043;50.970;7.192;2022-07-29T13:57:49;22.60;99.50
35960;DHT22;22043;50.970;7.192;2022-07-29T14:00:15;22.60;99.30
35960;DHT22;22043;50.970;7.192;2022-07-29T14:02:41;22.70;99.10
35960;DHT22;22043;50.970;7.192;2022-07-29T14:05:08;22.80;99.70
35960;DHT22;22043;50.970;7.192;2022-07-29T14:07:35;22.80;98.90
35960;DHT22;22043;50.970;7.192;2022-07-29T14:10:02;22.80;99.30
35960;DHT22;22043;50.970;7.192;2022-07-29T14:12:27;22.80;99.30
35960;DHT22;22043;50.970;7.192;2022-07-29T14:14:53;22.90;98.50
35960;DHT22;22043;50.970;7.192;2022-07-29T14:17:18;22.90;98.00
35960;DHT22;22043;50.970;7.192;2022-07-29T14:19:44;22.80;98.50
35960;DHT22;22043;50.970;7.192;2022-07-29T14:22:10;22.70;98.30
35960;DHT22;22043;50.970;7.192;2022-07-29T14:24:36;22.70;97.80
35960;DHT22;22043;50.970;7.192;2022-07-29T14:27:02;22.70;97.70
35960;DHT22;22043;50.970;7.192;2022-07-29T14:29:28;22.70;98.20
35960;DHT22;22043;50.970;7.192;2022-07-29T14:31:54;22.60;98.00
35960;DHT22;22043;50.970;7.192;2022-07-29T14:34:19;22.60;97.90
35960;DHT22;22043;50.970;7.192;2022-07-29T14:36:45;22.50;98.40
35960;DHT22;22043;50.970;7.192;2022-07-29T14:39:11;22.50;98.30
35960;DHT22;22043;50.970;7.192;2022-07-29T14:41:36;22.60;97.40
35960;DHT22;22043;50.970;7.192;2022-07-29T14:44:03;22.60;97.80
35960;DHT22;22043;50.970;7.192;2022-07-29T14:46:29;22.60;97.40
35960;DHT22;22043;50.970;7.192;2022-07-29T14:48:55;22.60;97.50
35960;DHT22;22043;50.970;7.192;2022-07-29T14:51:20;22.50;97.70
35960;DHT22;22043;50.970;7.192;2022-07-29T14:53:46;22.50;98.10
35960;DHT22;22043;50.970;7.192;2022-07-29T14:56:12;22.50;98.60
35960;DHT22;22043;50.970;7.192;2022-07-29T14:58:38;22.40;98.20
35960;DHT22;22043;50.970;7.192;2022-07-29T15:01:03;22.50;98.80
35960;DHT22;22043;50.970;7.192;2022-07-29T15:03:29;22.60;98.30
35960;DHT22;22043;50.970;7.192;2022-07-29T15:05:55;22.70;98.80
35960;DHT22;22043;50.970;7.192;2022-07-29T15:08:21;22.70;99.00
35960;DHT22;22043;50.970;7.192;2022-07-29T15:10:47;22.70;99.20
35960;DHT22;22043;50.970;7.192;2022-07-29T15:13:12;22.70;99.40
35960;DHT22;22043;50.970;7.192;2022-07-29T15:15:38;22.70;99.60
35960;DHT22;22043;50.970;7.192;2022-07-29T15:18:04;22.70;99.60
35960;DHT22;22043;50.970;7.192;2022-07-29T15:20:30;22.70;99.30
35960;DHT22;22043;50.970;7.192;2022-07-29T15:22:56;22.70;99.70
35960;DHT22;22043;50.970;7.192;2022-07-29T15:25:26;22.70;99.20
35960;DHT22;22043;50.970;7.192;2022-07-29T15:27:52;22.70;99.30
35960;DHT22;22043;50.970;7.192;2022-07-29T15:30:17;22.70;98.80
35960;DHT22;22043;50.970;7.192;2022-07-29T15:32:43;22.80;97.50
35960;DHT22;22043;50.970;7.192;2022-07-29T15:35:09;22.90;97.20
35960;DHT22;22043;50.970;7.192;2022-07-29T15:37:39;22.80;97.50
35960;DHT22;22043;50.970;7.192;2022-07-29T15:40:05;22.70;97.40
35960;DHT22;22043;50.970;7.192;2022-07-29T15:42:31;22.70;96.90
35960;DHT22;22043;50.970;7.192;2022-07-29T15:44:57;22.80;96.40
35960;DHT22;22043;50.970;7.192;2022-07-29T15:47:28;22.90;96.80
35960;DHT22;22043;50.970;7.192;2022-07-29T15:49:54;22.80;97.20
35960;DHT22;22043;50.970;7.192;2022-07-29T15:52:19;22.70;97.30
35960;DHT22;22043;50.970;7.192;2022-07-29T15:54:45;22.80;97.00
35960;DHT22;22043;50.970;7.192;2022-07-29T15:57:12;22.70;97.90
35960;DHT22;22043;50.970;7.192;2022-07-29T15:59:37;22.60;98.30
35960;DHT22;22043;50.970;7.192;2022-07-29T16:02:03;22.70;98.10
35960;DHT22;22043;50.970;7.192;2022-07-29T16:04:29;22.70;98.00
35960;DHT22;22043;50.970;7.192;2022-07-29T16:06:55;22.70;98.20
35960;DHT22;22043;50.970;7.192;2022-07-29T16:09:22;22.70;97.50
35960;DHT22;22043;50.970;7.192;2022-07-29T16:11:48;22.70;97.70
35960;DHT22;22043;50.970;7.192;2022-07-29T16:14:16;22.70;97.20
35960;DHT22;22043;50.970;7.192;2022-07-29T16:16:42;22.70;97.60